Time;durP1;ratioP1;P1;durP2;ratioP2;P2;SDS_P1;SDS_P2;PMS_P1;PMS_P2;Temp;Humidity;BMP_temperature;BMP_pressure;BME280_temperature;BME280_humidity;BME280_pressure;Samples;Min_cycle;Max_cycle;Signal;HPM_P1;HPM_P2
2023/08/12 00:00:59;;;;;;;8.87;8.03;;;21.70;99.90;;;;;;6191168;23;20493;-77
2023/08/12 00:03:33;;;;;;;8.10;7.50;;;21.70;99.90;;;;;;6188120;23;20388;-76
2023/08/12 00:06:05;;;;;;;8.73;7.83;;;21.70;99.90;;;;;;6186813;23;20441;-76
2023/08/12 00:08:37;;;;;;;9.47;8.70;;;21.60;99.90;;;;;;6189243;23;20400;-77
2023/08/12 00:11:07;;;;;;;10.07;7.67;;;21.60;99.90;;;;;;6200480;23;20466;-76
2023/08/12 00:13:39;;;;;;;7.40;6.70;;;21.60;99.90;;;;;;6200194;23;20414;-78
2023/08/12 00:16:11;;;;;;;8.97;8.07;;;21.50;99.90;;;;;;6199819;23;20427;-76
2023/08/12 00:18:42;;;;;;;7.33;6.73;;;21.50;99.90;;;;;;6197984;23;20427;-76
2023/08/12 00:21:17;;;;;;;7.80;7.10;;;21.50;99.90;;;;;;6199069;23;20411;-76
2023/08/12 00:23:49;;;;;;;8.83;8.13;;;21.50;99.90;;;;;;6194419;23;20425;-77
2023/08/12 00:26:27;;;;;;;8.40;7.60;;;21.40;99.90;;;;;;6195520;23;20434;-77
2023/08/12 00:28:58;;;;;;;10.07;7.73;;;21.40;99.90;;;;;;6194762;23;20411;-77
2023/08/12 00:31:32;;;;;;;8.70;7.93;;;21.30;99.90;;;;;;6199982;23;20443;-76
2023/08/12 00:34:02;;;;;;;7.73;7.13;;;21.30;99.90;;;;;;6205054;23;20415;-76
2023/08/12 00:36:33;;;;;;;8.20;7.53;;;21.20;99.90;;;;;;6206857;23;20472;-76
2023/08/12 00:39:05;;;;;;;8.73;7.90;;;21.20;99.90;;;;;;6205296;23;20387;-76
2023/08/12 00:41:32;;;;;;;8.20;7.60;;;21.20;99.90;;;;;;6204426;23;20392;-76
2023/08/12 00:43:59;;;;;;;8.63;7.83;;;21.20;99.90;;;;;;6200087;23;20407;-77
2023/08/12 00:46:27;;;;;;;7.57;6.97;;;21.20;99.90;;;;;;6198769;23;20411;-77
2023/08/12 00:48:58;;;;;;;9.60;8.60;;;21.10;99.90;;;;;;6192669;23;20482;-76
2023/08/12 00:51:31;;;;;;;8.83;8.03;;;21.20;99.90;;;;;;6189019;23;20475;-76
2023/08/12 00:54:08;;;;;;;8.90;8.20;;;21.10;99.90;;;;;;6188838;23;20407;-76
2023/08/12 00:56:47;;;;;;;9.40;8.63;;;21.10;99.90;;;;;;6191871;23;20427;-77
2023/08/12 00:59:18;;;;;;;9.37;8.47;;;21.00;99.90;;;;;;6196361;23;20391;-76
2023/08/12 01:01:52;;;;;;;10.53;8.60;;;21.00;99.90;;;;;;6190819;23;20490;-76
2023/08/12 01:04:20;;;;;;;8.80;8.10;;;21.00;99.90;;;;;;6187089;23;20430;-77
2023/08/12 01:06:49;;;;;;;9.43;8.60;;;20.90;99.90;;;;;;6187676;23;20493;-77
2023/08/12 01:09:22;;;;;;;8.87;8.07;;;20.80;99.90;;;;;;6187317;23;20470;-76
2023/08/12 01:11:58;;;;;;;7.57;6.90;;;20.80;99.90;;;;;;6187297;23;20435;-77
2023/08/12 01:14:38;;;;;;;7.97;7.17;;;20.80;99.90;;;;;;6187669;23;20415;-77
2023/08/12 01:17:12;;;;;;;7.87;7.27;;;20.80;99.90;;;;;;6187823;23;20501;-76
2023/08/12 01:19:52;;;;;;;7.53;6.80;;;20.70;99.90;;;;;;6187917;23;20478;-75
2023/08/12 01:22:32;;;;;;;7.33;6.73;;;20.80;99.90;;;;;;6186881;23;20782;-77
2023/08/12 01:25:07;;;;;;;8.07;7.47;;;20.70;99.90;;;;;;6185150;23;20419;-76
2023/08/12 01:30:24;;;;;;;8.20;7.60;;;20.70;99.90;;;;;;6197831;23;20403;-77
2023/08/12 01:32:58;;;;;;;8.80;8.10;;;20.60;99.90;;;;;;6198644;23;20418;-77
2023/08/12 01:35:44;;;;;;;8.13;7.53;;;20.60;99.90;;;;;;6195491;23;20466;-77
2023/08/12 01:38:20;;;;;;;7.10;6.60;;;20.60;99.90;;;;;;6202302;23;20411;-75
2023/08/12 01:41:27;;;;;;;9.23;8.40;;;20.50;99.90;;;;;;6200239;23;20418;-76
2023/08/12 01:44:03;;;;;;;7.97;7.27;;;20.50;99.90;;;;;;6195953;23;20864;-76
2023/08/12 01:46:42;;;;;;;8.20;7.40;;;20.50;99.90;;;;;;6191361;23;20442;-76
2023/08/12 01:49:24;;;;;;;8.27;7.53;;;20.40;99.90;;;;;;6187905;23;20435;-77
2023/08/12 01:52:07;;;;;;;7.30;6.80;;;20.40;99.90;;;;;;6190544;23;20439;-76
2023/08/12 01:54:57;;;;;;;8.20;7.50;;;20.50;99.90;;;;;;6190034;23;20411;-76
2023/08/12 01:57:35;;;;;;;7.83;7.20;;;20.30;99.90;;;;;;6193400;23;20430;-77
2023/08/12 02:00:24;;;;;;;8.27;7.67;;;20.20;99.90;;;;;;6195330;23;20391;-77
2023/08/12 02:02:57;;;;;;;8.73;8.13;;;20.20;99.90;;;;;;6195720;23;20457;-77
2023/08/12 02:05:38;;;;;;;9.73;8.37;;;20.10;99.90;;;;;;6193003;23;20431;-76
2023/08/12 02:08:10;;;;;;;8.07;7.37;;;20.10;99.90;;;;;;6192738;23;20417;-78
2023/08/12 02:10:41;;;;;;;7.80;7.20;;;20.10;99.90;;;;;;6193392;23;20450;-76
2023/08/12 02:13:23;;;;;;;8.03;7.43;;;20.10;99.90;;;;;;6194626;23;20423;-77
2023/08/12 02:16:12;;;;;;;8.13;7.40;;;20.10;99.90;;;;;;6197094;23;20446;-77
2023/08/12 02:19:00;;;;;;;7.50;7.00;;;20.00;99.90;;;;;;6196134;23;20415;-77
2023/08/12 02:21:39;;;;;;;8.23;7.53;;;20.10;99.90;;;;;;6195390;23;20410;-77
2023/08/12 02:24:16;;;;;;;9.47;7.30;;;20.10;99.90;;;;;;6194686;23;20514;-77
2023/08/12 02:26:51;;;;;;;8.17;7.37;;;20.20;99.90;;;;;;6195000;23;20450;-76
2023/08/12 02:29:23;;;;;;;8.20;7.50;;;20.10;99.90;;;;;;6194225;23;20477;-77
2023/08/12 02:31:55;;;;;;;8.43;7.70;;;20.10;99.90;;;;;;6196522;23;20956;-77
2023/08/12 02:34:29;;;;;;;8.23;7.43;;;20.10;99.90;;;;;;6197951;23;20478;-77
2023/08/12 02:37:03;;;;;;;8.40;7.67;;;20.10;99.90;;;;;;6194473;23;20506;-76
2023/08/12 02:39:31;;;;;;;8.57;7.80;;;20.10;99.90;;;;;;6193095;23;20392;-76
2023/08/12 02:41:59;;;;;;;9.43;8.53;;;20.20;99.90;;;;;;6194714;23;20406;-77
2023/08/12 02:44:32;;;;;;;8.53;7.73;;;20.20;99.90;;;;;;6188684;23;20896;-77
2023/08/12 02:47:00;;;;;;;8.43;7.73;;;20.10;99.90;;;;;;6191054;23;20789;-77
2023/08/12 02:49:31;;;;;;;8.83;8.03;;;20.10;99.90;;;;;;6195002;23;20403;-77
2023/08/12 02:51:58;;;;;;;8.70;8.10;;;20.00;99.90;;;;;;6194019;23;20439;-77
2023/08/12 02:54:27;;;;;;;8.53;7.90;;;20.10;99.90;;;;;;6190362;23;21085;-77
2023/08/12 02:57:01;;;;;;;8.87;8.07;;;20.10;99.90;;;;;;6195290;23;20464;-77
2023/08/12 02:59:33;;;;;;;9.93;7.90;;;20.10;99.90;;;;;;6202798;23;20416;-77
2023/08/12 03:02:07;;;;;;;8.30;7.70;;;20.10;99.90;;;;;;6203616;23;20402;-78
2023/08/12 03:04:49;;;;;;;9.30;8.40;;;20.00;99.90;;;;;;6203190;23;20416;-77
2023/08/12 03:07:28;;;;;;;8.60;7.80;;;20.00;99.90;;;;;;6204158;23;20414;-76
2023/08/12 03:10:07;;;;;;;8.50;7.57;;;20.00;99.90;;;;;;6204062;23;20411;-77
2023/08/12 03:12:46;;;;;;;;;;;;;;;;;;;;;
2023/08/12 03:15:25;;;;;;;8.60;8.00;;;20.00;99.90;;;;;;6204029;23;20422;-76
2023/08/12 03:17:57;;;;;;;9.30;8.50;;;20.00;99.90;;;;;;6203694;23;20497;-77
2023/08/12 03:20:25;;;;;;;8.23;7.53;;;20.00;99.90;;;;;;6190814;23;20407;-76
2023/08/12 03:22:57;;;;;;;8.63;7.93;;;19.70;99.90;;;;;;6188576;23;20395;-77
2023/08/12 03:28:16;;;;;;;9.73;7.97;;;20.10;99.90;;;;;;6189369;23;20924;-77
2023/08/12 03:30:54;;;;;;;8.97;7.80;;;20.00;99.90;;;;;;6189734;23;20403;-77
2023/08/12 03:33:33;;;;;;;8.73;7.93;;;20.00;99.90;;;;;;6189628;23;20483;-77
2023/08/12 03:36:08;;;;;;;8.50;7.73;;;20.00;99.90;;;;;;6188342;23;20501;-77
2023/08/12 03:38:45;;;;;;;9.07;8.27;;;20.00;99.90;;;;;;6189076;23;20880;-77
2023/08/12 03:41:16;;;;;;;8.30;7.60;;;20.10;99.90;;;;;;6187902;23;20422;-77
2023/08/12 03:43:50;;;;;;;8.50;7.70;;;20.10;99.90;;;;;;6187693;23;20403;-77
2023/08/12 03:46:20;;;;;;;8.57;7.87;;;20.10;99.90;;;;;;6187921;23;20435;-77
2023/08/12 03:49:04;;;;;;;8.93;8.10;;;20.10;99.90;;;;;;6188523;23;20406;-77
2023/08/12 03:51:35;;;;;;;8.90;8.20;;;20.10;99.90;;;;;;6188373;23;20435;-78
2023/08/12 03:54:12;;;;;;;8.70;7.90;;;20.10;99.90;;;;;;6188204;23;20411;-77
2023/08/12 03:56:42;;;;;;;8.97;8.23;;;20.10;99.90;;;;;;6187332;23;20442;-77
2023/08/12 03:59:13;;;;;;;8.37;7.73;;;20.10;99.90;;;;;;6188347;23;20411;-76
2023/08/12 04:01:45;;;;;;;8.97;8.17;;;20.00;99.90;;;;;;6187925;23;20411;-75
2023/08/12 04:04:22;;;;;;;8.23;7.53;;;20.10;99.90;;;;;;6189788;23;20411;-77
2023/08/12 04:06:51;;;;;;;8.80;8.10;;;20.00;99.90;;;;;;6189430;23;20518;-77
2023/08/12 04:09:19;;;;;;;8.67;7.97;;;20.10;99.90;;;;;;6189869;23;20415;-76
2023/08/12 04:11:53;;;;;;;8.97;8.20;;;20.10;99.90;;;;;;6191038;23;20443;-76
2023/08/12 04:14:24;;;;;;;8.70;7.90;;;20.10;99.90;;;;;;6191247;23;20446;-76
2023/08/12 04:17:00;;;;;;;8.10;7.30;;;20.10;99.90;;;;;;6191616;23;20434;-76
2023/08/12 04:19:28;;;;;;;7.73;7.13;;;20.10;99.90;;;;;;6196399;23;20513;-75
2023/08/12 04:21:57;;;;;;;8.20;7.60;;;20.10;99.90;;;;;;6190475;23;20415;-77
2023/08/12 04:24:26;;;;;;;8.73;8.03;;;19.90;99.90;;;;;;6186090;23;20442;-77
2023/08/12 04:26:59;;;;;;;8.13;7.47;;;20.10;99.90;;;;;;6186992;23;20466;-77
2023/08/12 04:29:27;;;;;;;7.87;7.27;;;20.10;99.90;;;;;;6187084;23;20415;-78
2023/08/12 04:31:56;;;;;;;8.93;8.23;;;19.80;99.90;;;;;;6186730;23;20439;-78
2023/08/12 04:34:23;;;;;;;8.37;7.73;;;20.10;99.90;;;;;;6186408;23;20430;-77
2023/08/12 04:36:51;;;;;;;8.50;7.80;;;20.10;99.90;;;;;;6185783;23;20441;-77
2023/08/12 04:39:19;;;;;;;9.50;8.40;;;20.10;99.90;;;;;;6186499;23;20407;-78
2023/08/12 04:41:48;;;;;;;8.97;8.07;;;20.10;99.90;;;;;;6188417;23;20508;-77
2023/08/12 04:44:19;;;;;;;8.83;7.93;;;20.20;99.90;;;;;;6189926;23;20402;-77
2023/08/12 04:46:51;;;;;;;8.27;7.50;;;20.20;99.90;;;;;;6188580;23;20522;-76
2023/08/12 04:49:21;;;;;;;8.20;7.60;;;20.20;99.90;;;;;;6189066;23;20497;-77
2023/08/12 04:51:49;;;;;;;8.73;7.93;;;20.20;99.90;;;;;;6188706;23;20434;-77
2023/08/12 04:54:18;;;;;;;7.63;7.13;;;20.20;99.90;;;;;;6190569;23;20498;-76
2023/08/12 04:56:49;;;;;;;10.53;9.60;;;20.20;99.90;;;;;;6191478;23;20482;-77
2023/08/12 04:59:20;;;;;;;8.17;7.33;;;20.00;99.90;;;;;;6191464;23;20399;-77
2023/08/12 05:01:47;;;;;;;8.30;7.70;;;20.20;99.90;;;;;;6191055;23;20406;-77
2023/08/12 05:04:31;;;;;;;8.57;7.97;;;20.20;99.90;;;;;;6193882;23;20760;-77
2023/08/12 05:07:02;;;;;;;7.53;6.97;;;20.20;99.90;;;;;;6196428;23;20450;-76
2023/08/12 05:09:29;;;;;;;9.07;8.37;;;20.30;99.90;;;;;;6198997;23;20415;-76
2023/08/12 05:11:59;;;;;;;8.07;7.47;;;20.30;99.90;;;;;;6194549;23;20496;-78
2023/08/12 05:14:32;;;;;;;9.50;8.60;;;20.30;99.90;;;;;;6189973;23;20415;-76
2023/08/12 05:17:04;;;;;;;7.20;6.70;;;20.30;99.90;;;;;;6189310;23;20503;-76
2023/08/12 05:19:36;;;;;;;8.23;7.50;;;20.40;99.90;;;;;;6190117;23;20411;-77
2023/08/12 05:22:04;;;;;;;8.23;7.50;;;20.40;99.90;;;;;;6193096;23;20410;-77
2023/08/12 05:24:32;;;;;;;9.03;8.10;;;20.40;99.90;;;;;;6190177;23;20502;-77
2023/08/12 05:27:01;;;;;;;9.17;8.20;;;20.40;99.90;;;;;;6185630;23;20435;-77
2023/08/12 05:29:29;;;;;;;8.37;7.67;;;20.30;99.90;;;;;;6184883;23;20758;-76
2023/08/12 05:31:57;;;;;;;9.47;8.60;;;20.30;99.90;;;;;;6184782;23;20447;-77
2023/08/12 05:34:32;;;;;;;8.83;8.03;;;20.40;99.90;;;;;;6184269;23;20757;-77
2023/08/12 05:37:10;;;;;;;9.67;8.13;;;20.40;99.90;;;;;;6187215;23;20967;-77
2023/08/12 05:39:41;;;;;;;9.27;8.47;;;20.40;99.90;;;;;;6184384;23;20415;-76
2023/08/12 05:42:18;;;;;;;9.70;8.77;;;20.80;99.90;;;;;;6183539;23;20650;-76
2023/08/12 05:44:51;;;;;;;8.53;7.83;;;20.50;99.90;;;;;;6184471;23;20827;-76
2023/08/12 05:47:23;;;;;;;8.80;8.10;;;20.50;99.90;;;;;;6184807;23;20423;-77
2023/08/12 05:50:00;;;;;;;9.30;8.40;;;20.60;99.90;;;;;;6188428;23;20371;-76
2023/08/12 05:52:53;;;;;;;9.13;8.33;;;20.50;99.90;;;;;;6188402;23;20438;-77
2023/08/12 05:55:24;;;;;;;9.03;8.33;;;20.50;99.90;;;;;;6188237;23;20463;-78
2023/08/12 05:58:02;;;;;;;9.87;8.97;;;20.60;99.90;;;;;;6186545;23;20738;-78
2023/08/12 06:00:33;;;;;;;10.83;9.20;;;20.50;99.90;;;;;;6184968;23;21035;-79
2023/08/12 06:03:01;;;;;;;9.73;8.93;;;20.80;99.90;;;;;;6183876;23;20885;-76
2023/08/12 06:05:29;;;;;;;9.13;8.40;;;20.60;99.90;;;;;;6185584;23;20427;-79
2023/08/12 06:07:59;;;;;;;9.47;8.70;;;20.60;99.90;;;;;;6186803;23;20418;-76
2023/08/12 06:10:26;;;;;;;11.37;8.07;;;20.70;99.90;;;;;;6187477;23;20490;-77
2023/08/12 06:12:57;;;;;;;10.07;9.20;;;20.80;99.90;;;;;;6188752;23;20466;-79
2023/08/12 06:15:25;;;;;;;9.80;8.80;;;20.80;99.90;;;;;;6189663;23;20422;-76
2023/08/12 06:17:53;;;;;;;9.43;8.73;;;20.80;99.90;;;;;;6187108;23;20822;-77
2023/08/12 06:20:21;;;;;;;9.20;8.40;;;20.80;99.90;;;;;;6190630;23;20411;-76
2023/08/12 06:22:54;;;;;;;9.43;8.53;;;20.80;99.90;;;;;;6198067;23;20470;-78
2023/08/12 06:25:23;;;;;;;9.70;9.00;;;21.10;99.90;;;;;;6198591;23;20412;-77
2023/08/12 06:27:51;;;;;;;9.90;9.07;;;20.90;99.90;;;;;;6198626;23;20495;-78
2023/08/12 06:30:25;;;;;;;10.43;9.53;;;20.90;99.90;;;;;;6200566;23;20422;-77
2023/08/12 06:32:52;;;;;;;9.93;9.10;;;20.90;99.90;;;;;;6191034;23;20497;-77
2023/08/12 06:35:20;;;;;;;9.90;9.10;;;21.00;99.90;;;;;;6186581;23;20431;-76
2023/08/12 06:37:48;;;;;;;11.63;9.53;;;21.10;99.90;;;;;;6186895;23;20986;-77
2023/08/12 06:40:18;;;;;;;10.13;9.23;;;21.10;99.90;;;;;;6187092;23;20498;-77
2023/08/12 06:42:47;;;;;;;9.07;8.47;;;21.20;99.90;;;;;;6185413;23;20412;-75
2023/08/12 06:45:15;;;;;;;9.30;8.60;;;21.30;99.90;;;;;;6186782;23;21027;-78
2023/08/12 06:47:44;;;;;;;8.90;8.20;;;21.30;99.90;;;;;;6189770;23;20410;-78
2023/08/12 06:50:12;;;;;;;9.93;9.03;;;21.40;99.90;;;;;;6195462;23;20402;-77
2023/08/12 06:52:39;;;;;;;9.93;9.03;;;21.50;99.90;;;;;;6193119;23;20438;-76
2023/08/12 06:55:08;;;;;;;10.57;9.70;;;21.50;99.90;;;;;;6192784;23;20427;-78
2023/08/12 06:57:36;;;;;;;10.57;9.67;;;21.60;99.90;;;;;;6196783;23;20470;-78
2023/08/12 07:00:07;;;;;;;10.40;9.50;;;21.70;99.90;;;;;;6196700;23;20920;-78
2023/08/12 07:02:36;;;;;;;12.53;11.43;;;21.90;99.90;;;;;;6200407;23;20402;-77
2023/08/12 07:05:07;;;;;;;10.70;9.80;;;22.00;99.90;;;;;;6201504;23;20421;-78
2023/08/12 07:07:35;;;;;;;9.87;8.90;;;22.20;99.90;;;;;;6203869;23;20400;-75
2023/08/12 07:10:04;;;;;;;10.20;9.50;;;22.30;99.90;;;;;;6202546;23;20474;-76
2023/08/12 07:12:37;;;;;;;8.93;8.33;;;22.30;99.90;;;;;;6200158;23;20522;-74
2023/08/12 07:15:12;;;;;;;8.80;8.10;;;22.40;99.90;;;;;;6201255;23;20433;-76
2023/08/12 07:17:49;;;;;;;8.80;8.10;;;22.60;99.90;;;;;;6200657;23;20414;-76
2023/08/12 07:20:18;;;;;;;9.43;8.33;;;22.80;99.90;;;;;;6199994;23;20407;-78
2023/08/12 07:22:50;;;;;;;11.40;10.40;;;22.80;99.90;;;;;;6197392;23;20415;-77
2023/08/12 07:25:24;;;;;;;9.80;9.00;;;22.70;99.90;;;;;;6198397;23;20431;-76
2023/08/12 07:27:52;;;;;;;13.23;11.47;;;22.80;99.90;;;;;;6187230;23;20415;-76
2023/08/12 07:30:22;;;;;;;9.63;8.60;;;22.80;99.90;;;;;;6196927;23;20449;-76
2023/08/12 07:32:57;;;;;;;8.37;7.67;;;22.90;99.90;;;;;;6195250;23;20427;-77
2023/08/12 07:35:25;;;;;;;10.10;8.10;;;23.20;99.90;;;;;;6195195;23;20505;-77
2023/08/12 07:37:53;;;;;;;8.77;7.97;;;23.30;99.90;;;;;;6195496;23;20407;-77
2023/08/12 07:40:25;;;;;;;9.27;8.23;;;23.30;99.90;;;;;;6198060;23;20407;-77
2023/08/12 07:42:55;;;;;;;8.60;7.90;;;23.30;99.90;;;;;;6197841;23;20418;-77
2023/08/12 07:45:25;;;;;;;8.33;7.53;;;23.50;99.90;;;;;;6199375;23;20408;-78
2023/08/12 07:47:53;;;;;;;8.37;7.63;;;23.70;99.90;;;;;;6198243;23;20517;-78
2023/08/12 07:50:27;;;;;;;8.77;8.07;;;23.80;99.90;;;;;;6199434;23;20407;-79
2023/08/12 07:52:55;;;;;;;9.87;9.07;;;23.90;99.90;;;;;;6200964;23;20435;-77
2023/08/12 07:55:28;;;;;;;8.30;7.70;;;24.00;99.90;;;;;;6191670;23;20739;-79
2023/08/12 07:57:56;;;;;;;8.67;7.33;;;24.10;99.90;;;;;;6192930;23;20420;-77
2023/08/12 08:00:34;;;;;;;7.67;7.10;;;24.30;99.90;;;;;;6190503;23;20392;-79
2023/08/12 08:03:02;;;;;;;8.57;7.90;;;24.40;99.90;;;;;;6189293;23;20403;-78
2023/08/12 08:05:30;;;;;;;8.50;7.80;;;24.60;99.90;;;;;;6188667;23;20446;-78
2023/08/12 08:07:58;;;;;;;8.23;7.53;;;24.70;99.90;;;;;;6188924;23;20411;-79
2023/08/12 08:10:29;;;;;;;7.03;6.53;;;24.70;99.90;;;;;;6190294;23;20411;-77
2023/08/12 08:12:58;;;;;;;7.13;6.63;;;24.90;99.90;;;;;;6192470;23;20427;-80
2023/08/12 08:15:30;;;;;;;7.87;7.23;;;25.00;99.90;;;;;;6192268;23;20454;-78
2023/08/12 08:17:58;;;;;;;8.13;7.53;;;25.10;99.90;;;;;;6188863;23;20407;-81
2023/08/12 08:20:27;;;;;;;8.80;8.00;;;25.30;99.90;;;;;;6188813;23;20418;-78
2023/08/12 08:23:03;;;;;;;8.47;7.70;;;25.60;99.90;;;;;;6188688;23;20734;-78
2023/08/12 08:25:32;;;;;;;9.20;8.27;;;25.80;99.90;;;;;;6189469;23;20461;-78
2023/08/12 08:28:05;;;;;;;7.80;7.23;;;25.90;99.90;;;;;;6188627;23;20490;-78
2023/08/12 08:30:37;;;;;;;8.17;7.20;;;25.90;99.90;;;;;;6188896;23;20762;-79
2023/08/12 08:33:21;;;;;;;7.40;6.80;;;25.80;99.90;;;;;;6193190;23;20451;-80
2023/08/12 08:35:53;;;;;;;8.80;7.10;;;26.00;99.90;;;;;;6191433;23;20447;-78
2023/08/12 08:38:29;;;;;;;7.07;6.47;;;26.20;99.90;;;;;;6192114;23;20418;-80
2023/08/12 08:40:58;;;;;;;10.47;6.90;;;26.40;99.90;;;;;;6189650;23;20438;-78
2023/08/12 08:43:29;;;;;;;7.90;7.10;;;26.40;99.90;;;;;;6189162;23;20407;-79
2023/08/12 08:46:03;;;;;;;7.57;7.00;;;26.60;99.90;;;;;;6189707;23;20901;-76
2023/08/12 08:48:38;;;;;;;7.27;6.60;;;26.60;99.90;;;;;;6188923;23;20414;-79
2023/08/12 08:51:08;;;;;;;7.40;6.70;;;26.60;99.90;;;;;;6189337;23;20433;-79
2023/08/12 08:53:47;;;;;;;7.00;6.50;;;26.60;99.90;;;;;;6189840;23;20470;-79
2023/08/12 08:56:16;;;;;;;8.13;6.50;;;27.00;99.90;;;;;;6189722;23;20503;-78
2023/08/12 08:58:51;;;;;;;7.00;6.50;;;27.50;99.90;;;;;;6190081;23;20465;-78
2023/08/12 09:01:23;;;;;;;8.63;6.50;;;27.50;99.90;;;;;;6192619;23;20395;-78
2023/08/12 09:03:59;;;;;;;7.40;6.70;;;27.80;99.90;;;;;;6191555;23;20486;-80
2023/08/12 09:06:35;;;;;;;9.60;6.83;;;28.00;99.90;;;;;;6192111;23;20526;-78
2023/08/12 09:09:10;;;;;;;8.40;7.60;;;28.30;99.90;;;;;;6195391;23;20422;-77
2023/08/12 09:11:44;;;;;;;6.90;6.40;;;28.50;99.90;;;;;;6198396;23;20394;-81
2023/08/12 09:14:20;;;;;;;8.20;7.17;;;28.70;99.90;;;;;;6196389;23;20439;-78
2023/08/12 09:16:53;;;;;;;7.13;6.47;;;28.90;99.90;;;;;;6203159;23;20920;-79
2023/08/12 09:19:28;;;;;;;6.80;6.20;;;29.20;99.90;;;;;;6202783;23;20391;-78
2023/08/12 09:21:56;;;;;;;7.50;6.83;;;29.30;99.90;;;;;;6202014;23;20438;-76
2023/08/12 09:24:27;;;;;;;6.93;6.43;;;29.20;99.90;;;;;;6199541;23;20426;-76
2023/08/12 09:27:01;;;;;;;7.07;6.57;;;29.70;99.90;;;;;;6191393;23;20422;-78
2023/08/12 09:29:46;;;;;;;7.50;6.80;;;29.80;99.90;;;;;;6193505;23;20410;-77
2023/08/12 09:32:34;;;;;;;8.43;6.23;;;30.10;99.90;;;;;;6193296;23;20457;-77
2023/08/12 09:35:10;;;;;;;7.13;6.53;;;30.40;99.90;;;;;;6190883;23;20439;-78
2023/08/12 09:37:43;;;;;;;7.43;6.80;;;30.30;99.90;;;;;;6191688;23;20426;-77
2023/08/12 09:40:13;;;;;;;6.50;6.10;;;30.60;99.90;;;;;;6189919;23;20407;-80
2023/08/12 09:42:50;;;;;;;6.87;6.37;;;30.80;99.90;;;;;;6192300;23;20415;-77
2023/08/12 09:45:27;;;;;;;6.33;5.83;;;31.10;99.90;;;;;;6190494;23;20430;-78
2023/08/12 09:47:57;;;;;;;6.47;6.00;;;31.30;99.90;;;;;;6188499;23;20410;-78
2023/08/12 09:50:31;;;;;;;9.87;6.00;;;31.40;99.90;;;;;;6188193;23;20438;-80
2023/08/12 09:53:05;;;;;;;6.60;6.10;;;31.50;99.90;;;;;;6185406;23;20433;-77
2023/08/12 09:55:36;;;;;;;6.10;5.70;;;31.70;99.90;;;;;;6187688;23;20779;-78
2023/08/12 09:58:16;;;;;;;6.53;6.00;;;31.70;99.90;;;;;;6187091;23;20427;-79
2023/08/12 10:00:51;;;;;;;6.43;5.93;;;31.70;99.90;;;;;;6186485;23;20415;-79
2023/08/12 10:03:23;;;;;;;5.70;5.20;;;31.70;99.90;;;;;;6186875;23;20458;-78
2023/08/12 10:08:53;;;;;;;5.53;4.97;;;31.70;99.90;;;;;;6183499;23;20433;-79
2023/08/12 10:11:35;;;;;;;5.77;5.13;;;31.40;99.90;;;;;;6187256;23;20403;-79
2023/08/12 10:14:36;;;;;;;6.17;5.20;;;31.00;99.90;;;;;;6187418;23;20435;-78
2023/08/12 10:17:15;;;;;;;5.23;4.83;;;30.60;99.90;;;;;;6190721;23;20450;-79
2023/08/12 10:19:50;;;;;;;4.27;3.97;;;30.80;99.90;;;;;;6193568;23;20449;-79
2023/08/12 10:22:27;;;;;;;5.50;5.00;;;30.80;99.90;;;;;;6194026;23;20406;-79
2023/08/12 10:28:23;;;;;;;3.70;3.27;;;30.80;99.90;;;;;;6101180;23;20477;-78
2023/08/12 10:30:58;;;;;;;3.83;3.60;;;30.70;99.90;;;;;;6119250;23;20420;-79
2023/08/12 10:33:30;;;;;;;3.60;3.40;;;30.80;99.90;;;;;;6172053;23;20439;-79
2023/08/12 10:36:10;;;;;;;4.10;3.50;;;31.00;99.90;;;;;;6193027;23;20458;-78
2023/08/12 10:38:38;;;;;;;4.20;3.90;;;31.20;99.90;;;;;;6194069;23;20478;-80
2023/08/12 10:41:30;;;;;;;4.63;3.93;;;31.30;99.90;;;;;;6193425;23;20411;-81
2023/08/12 10:44:04;;;;;;;4.40;4.10;;;31.10;99.90;;;;;;6188280;23;20403;-79
2023/08/12 10:46:34;;;;;;;3.53;3.23;;;31.00;99.90;;;;;;6194183;23;20426;-77
2023/08/12 10:49:06;;;;;;;5.07;4.03;;;31.00;99.90;;;;;;6194597;23;20407;-78
2023/08/12 10:51:49;;;;;;;4.80;4.40;;;31.30;99.90;;;;;;6197926;23;20411;-80
2023/08/12 10:54:26;;;;;;;4.43;3.70;;;31.30;99.90;;;;;;6198329;23;20434;-78
2023/08/12 10:57:14;;;;;;;4.30;4.00;;;31.50;99.90;;;;;;6198843;23;20419;-79
2023/08/12 11:00:13;;;;;;;3.87;3.57;;;31.60;99.90;;;;;;6197015;23;20395;-80
2023/08/12 11:02:54;;;;;;;4.27;3.97;;;32.20;99.90;;;;;;6197366;23;20446;-79
2023/08/12 11:05:24;;;;;;;4.40;4.00;;;32.50;99.90;;;;;;6199107;23;20503;-79
2023/08/12 11:08:07;;;;;;;4.43;4.10;;;32.70;99.90;;;;;;6198924;23;20434;-80
2023/08/12 11:10:41;;;;;;;3.70;3.40;;;32.90;99.90;;;;;;6200669;23;20387;-78
2023/08/12 11:13:19;;;;;;;3.60;3.30;;;32.90;99.90;;;;;;6199057;23;20384;-82
2023/08/12 11:16:07;;;;;;;4.10;3.73;;;33.40;99.90;;;;;;6203031;23;20422;-80
2023/08/12 11:18:37;;;;;;;4.80;3.40;;;33.50;99.90;;;;;;6205742;23;20430;-79
2023/08/12 11:21:18;;;;;;;4.20;3.80;;;33.80;99.90;;;;;;6204403;23;20407;-77
2023/08/12 11:23:48;;;;;;;3.83;3.53;;;33.80;99.90;;;;;;6204039;23;20487;-78
2023/08/12 11:26:19;;;;;;;3.60;3.30;;;33.10;99.90;;;;;;6202723;23;20431;-79
2023/08/12 11:28:48;;;;;;;4.30;4.00;;;32.90;99.90;;;;;;6201159;23;20792;-78
2023/08/12 11:31:17;;;;;;;4.07;3.87;;;33.00;99.90;;;;;;6197878;23;20469;-78
2023/08/12 11:33:46;;;;;;;3.43;3.23;;;32.80;99.90;;;;;;6193848;23;20439;-78
2023/08/12 11:36:14;;;;;;;3.80;3.40;;;32.80;99.90;;;;;;6193495;23;20486;-79
2023/08/12 11:38:43;;;;;;;3.80;3.30;;;33.20;99.90;;;;;;6194408;23;20443;-79
2023/08/12 11:41:13;;;;;;;3.50;3.20;;;33.00;99.90;;;;;;6191492;23;20411;-78
2023/08/12 11:43:43;;;;;;;3.80;3.50;;;33.00;99.90;;;;;;6189577;23;20403;-79
2023/08/12 11:46:17;;;;;;;6.43;5.90;;;33.40;99.90;;;;;;6190226;23;20439;-79
2023/08/12 11:48:48;;;;;;;4.67;4.27;;;33.70;99.90;;;;;;6190260;23;20463;-78
2023/08/12 11:51:20;;;;;;;3.80;3.50;;;34.10;99.90;;;;;;6193921;23;20415;-80
2023/08/12 11:53:49;;;;;;;3.93;3.63;;;33.70;99.90;;;;;;6192284;23;20438;-77
2023/08/12 11:56:20;;;;;;;4.13;3.83;;;33.80;99.90;;;;;;6189375;23;20444;-79
2023/08/12 11:58:56;;;;;;;4.10;3.80;;;33.80;99.90;;;;;;6199566;23;20418;-77
2023/08/12 12:01:31;;;;;;;4.43;3.70;;;33.50;99.90;;;;;;6199044;23;20395;-80
2023/08/12 12:04:55;;;;;;;;;;;;;;;;;;;;;
2023/08/12 12:07:39;;;;;;;4.63;4.37;;;32.70;99.90;;;;;;6140112;23;20431;-79
2023/08/12 12:10:35;;;;;;;4.73;4.40;;;31.70;99.90;;;;;;6201056;23;20415;-78
2023/08/12 12:13:23;;;;;;;4.60;4.20;;;29.70;99.90;;;;;;6171208;23;20412;-78
2023/08/12 12:15:59;;;;;;;5.03;4.70;;;29.50;99.90;;;;;;6195725;23;20442;-79
2023/08/12 12:18:44;;;;;;;4.00;3.70;;;29.10;99.90;;;;;;6197780;23;20530;-77
2023/08/12 12:21:49;;;;;;;4.60;4.20;;;28.60;99.90;;;;;;6197362;23;20413;-78
2023/08/12 12:24:31;;;;;;;4.90;4.43;;;27.50;99.90;;;;;;6194998;23;20469;-78
2023/08/12 12:27:02;;;;;;;3.70;3.40;;;27.10;99.90;;;;;;6192188;23;20959;-79
2023/08/12 12:32:48;;;;;;;4.57;4.13;;;26.90;99.90;;;;;;6160617;23;20464;-79
2023/08/12 12:35:27;;;;;;;4.50;4.10;;;26.70;99.90;;;;;;6163904;23;20515;-78
2023/08/12 12:38:14;;;;;;;4.97;4.60;;;26.50;99.90;;;;;;6162217;23;20525;-80
2023/08/12 12:40:55;;;;;;;6.27;5.40;;;26.20;99.90;;;;;;6164495;23;20444;-79
2023/08/12 12:43:27;;;;;;;5.87;5.40;;;25.40;99.90;;;;;;6163082;23;20412;-78
2023/08/12 12:46:40;;;;;;;5.10;4.70;;;25.20;99.90;;;;;;6163728;23;20463;-79
2023/08/12 12:52:33;;;;;;;5.53;5.00;;;24.80;99.90;;;;;;6160418;23;21054;-78
2023/08/12 12:58:09;;;;;;;4.73;4.40;;;25.00;99.90;;;;;;6162945;23;20388;-79
2023/08/12 13:00:49;;;;;;;5.13;4.70;;;25.20;99.90;;;;;;6165255;23;20426;-79
2023/08/12 13:03:40;;;;;;;6.50;6.00;;;25.40;99.90;;;;;;6164838;23;20486;-79
2023/08/12 13:06:22;;;;;;;4.93;4.40;;;25.50;99.90;;;;;;6164248;23;20638;-78
2023/08/12 13:09:07;;;;;;;5.23;4.73;;;25.60;99.90;;;;;;6163876;23;20411;-77
2023/08/12 13:12:01;;;;;;;5.10;4.70;;;25.50;99.90;;;;;;6164001;23;20427;-79
2023/08/12 13:14:37;;;;;;;5.60;5.10;;;25.50;99.90;;;;;;6161247;23;20447;-79
2023/08/12 13:17:26;;;;;;;5.87;5.47;;;25.50;99.90;;;;;;6164149;23;20435;-79
2023/08/12 13:20:17;;;;;;;6.97;4.90;;;25.60;99.90;;;;;;6164840;23;20959;-79
2023/08/12 13:22:58;;;;;;;5.63;5.13;;;25.50;99.90;;;;;;6159905;23;20416;-78
2023/08/12 13:26:10;;;;;;;7.10;5.60;;;25.50;99.90;;;;;;6159062;23;20434;-79
2023/08/12 13:28:44;;;;;;;6.10;5.70;;;25.40;99.90;;;;;;6038601;23;20448;-78
2023/08/12 13:34:01;;;;;;;6.27;5.60;;;25.40;99.90;;;;;;6189684;23;20731;-78
2023/08/12 13:36:31;;;;;;;7.60;5.30;;;25.30;99.90;;;;;;6189370;23;20434;-77
2023/08/12 13:42:14;;;;;;;5.80;5.30;;;25.20;99.90;;;;;;6186756;23;20394;-79
2023/08/12 13:45:03;;;;;;;6.37;5.90;;;25.10;99.90;;;;;;6186570;23;20951;-77
2023/08/12 13:47:36;;;;;;;7.50;5.60;;;25.10;99.90;;;;;;6186349;23;20415;-79
2023/08/12 13:50:17;;;;;;;6.30;5.80;;;25.30;99.90;;;;;;6186095;23;20461;-77
2023/08/12 13:53:00;;;;;;;6.73;6.10;;;25.70;99.90;;;;;;6187470;23;20481;-79